Time;durP1;ratioP1;P1;durP2;ratioP2;P2;SDS_P1;SDS_P2;PMS_P1;PMS_P2;Temp;Humidity;BMP_temperature;BMP_pressure;BME280_temperature;BME280_humidity;BME280_pressure;Samples;Min_cycle;Max_cycle;Signal;HPM_P1;HPM_P2
2023/03/07 00:01:28;;;;;;;60.63;29.85;;;2.20;99.90;;;;;;5098789;28;20498;-67
2023/03/07 00:03:56;;;;;;;54.42;26.38;;;2.30;99.90;;;;;;5097804;28;20890;-67
2023/03/07 00:06:22;;;;;;;46.13;24.42;;;2.50;99.90;;;;;;5100838;28;20406;-67
2023/03/07 00:08:52;;;;;;;44.37;23.23;;;2.60;99.90;;;;;;5100234;28;20540;-67
2023/03/07 00:11:19;;;;;;;35.88;20.83;;;2.80;99.90;;;;;;5100882;28;20483;-67
2023/03/07 00:13:46;;;;;;;33.92;18.70;;;2.90;99.90;;;;;;5096848;28;20467;-67
2023/03/07 00:16:14;;;;;;;28.63;17.30;;;3.00;99.90;;;;;;5098651;28;20469;-66
2023/03/07 00:18:41;;;;;;;29.15;17.23;;;3.20;99.90;;;;;;5101980;28;20438;-66
2023/03/07 00:21:09;;;;;;;26.23;16.25;;;3.20;99.90;;;;;;5103876;28;20420;-66
2023/03/07 00:23:38;;;;;;;26.07;16.37;;;3.30;99.90;;;;;;5101052;28;20406;-66
2023/03/07 00:26:08;;;;;;;28.10;15.90;;;3.30;99.90;;;;;;5098769;28;20457;-68
2023/03/07 00:28:35;;;;;;;25.23;15.75;;;3.30;99.90;;;;;;5101319;28;20411;-67
2023/03/07 00:31:03;;;;;;;26.08;16.25;;;3.40;99.90;;;;;;5102419;28;20408;-66
2023/03/07 00:33:30;;;;;;;24.10;15.30;;;3.40;99.90;;;;;;5105308;28;20407;-69
2023/03/07 00:35:59;;;;;;;21.67;14.88;;;3.40;99.90;;;;;;5094990;28;20780;-66
2023/03/07 00:38:26;;;;;;;24.60;15.90;;;3.40;99.90;;;;;;5100854;28;20497;-67
2023/03/07 00:41:00;;;;;;;26.47;15.47;;;3.40;99.90;;;;;;5099069;28;20510;-65
2023/03/07 00:43:28;;;;;;;24.23;16.23;;;3.40;99.90;;;;;;5102458;28;20471;-66
2023/03/07 00:45:56;;;;;;;23.43;15.50;;;3.40;99.90;;;;;;5099249;28;20408;-66
2023/03/07 00:48:23;;;;;;;22.35;15.32;;;3.50;99.90;;;;;;5101027;28;20883;-65
2023/03/07 00:50:50;;;;;;;25.20;15.82;;;3.50;99.90;;;;;;5101528;28;20883;-66
2023/03/07 00:53:18;;;;;;;23.77;15.77;;;3.50;99.90;;;;;;5096031;28;20422;-65
2023/03/07 00:55:54;;;;;;;22.52;14.80;;;3.50;99.90;;;;;;5100885;28;20414;-65
2023/03/07 00:58:21;;;;;;;23.23;15.02;;;3.50;99.90;;;;;;5099523;28;20455;-66
2023/03/07 01:00:49;;;;;;;22.73;15.48;;;3.60;99.90;;;;;;5101257;28;20423;-66
2023/03/07 01:03:16;;;;;;;20.42;13.68;;;3.60;99.90;;;;;;5095239;28;20411;-67
2023/03/07 01:05:43;;;;;;;21.67;14.50;;;3.60;99.90;;;;;;5104729;28;20461;-66
2023/03/07 01:08:09;;;;;;;20.27;13.57;;;3.70;99.90;;;;;;5110226;28;20408;-66
2023/03/07 01:10:37;;;;;;;18.08;13.18;;;3.70;99.90;;;;;;5113604;28;20811;-66
2023/03/07 01:13:04;;;;;;;19.45;12.93;;;3.60;99.90;;;;;;5116730;28;20412;-67
2023/03/07 01:15:30;;;;;;;18.83;12.37;;;3.70;99.90;;;;;;5100133;28;20416;-67
2023/03/07 01:17:58;;;;;;;18.85;13.23;;;3.60;99.90;;;;;;5103990;28;20412;-68
2023/03/07 01:20:25;;;;;;;17.85;12.75;;;3.60;99.90;;;;;;5106648;28;20416;-66
2023/03/07 01:22:52;;;;;;;14.23;9.85;;;3.70;99.90;;;;;;5105057;28;20418;-66
2023/03/07 01:25:19;;;;;;;17.50;12.23;;;3.70;99.90;;;;;;5103714;28;20439;-66
2023/03/07 01:27:45;;;;;;;17.50;12.75;;;3.70;99.90;;;;;;5107211;28;20504;-67
2023/03/07 01:30:13;;;;;;;16.30;11.27;;;3.60;99.90;;;;;;5103543;28;20757;-67
2023/03/07 01:32:39;;;;;;;16.92;11.55;;;3.70;99.90;;;;;;5109659;28;20412;-64
2023/03/07 01:35:09;;;;;;;17.40;12.48;;;3.70;99.90;;;;;;5101544;28;20407;-67
2023/03/07 01:37:35;;;;;;;;;;;3.60;99.90;;;;;;5107064;28;20408;-67
2023/03/07 01:40:03;;;;;;;;;;;3.60;99.90;;;;;;5109248;28;19997;-67
2023/03/07 01:42:30;;;;;;;;;;;3.70;99.90;;;;;;5103369;28;19977;-66
2023/03/07 01:44:58;;;;;;;;;;;3.70;99.90;;;;;;5099978;28;19919;-66
2023/03/07 01:47:25;;;;;;;;;;;3.80;99.90;;;;;;5102767;28;19920;-65
2023/03/07 01:49:51;;;;;;;;;;;3.90;99.90;;;;;;5106760;28;19965;-68
2023/03/07 01:52:21;;;;;;;;;;;3.80;99.90;;;;;;5109469;28;20375;-67
2023/03/07 01:54:50;;;;;;;;;;;3.80;99.90;;;;;;5104483;28;19969;-67
2023/03/07 01:57:18;;;;;;;;;;;3.80;99.90;;;;;;5102087;28;19930;-66
2023/03/07 01:59:46;;;;;;;;;;;3.80;99.90;;;;;;5106288;28;19969;-66
2023/03/07 02:02:15;;;;;;;;;;;3.80;99.90;;;;;;5103349;28;19920;-66
2023/03/07 02:04:44;;;;;;;;;;;3.80;99.90;;;;;;5106992;28;20286;-67
2023/03/07 02:07:10;;;;;;;;;;;3.80;99.90;;;;;;5100195;28;19920;-66
2023/03/07 02:09:38;;;;;;;;;;;3.80;99.90;;;;;;5106656;28;19920;-67
2023/03/07 02:12:06;;;;;;;;;;;3.80;99.90;;;;;;5103103;28;20290;-67
2023/03/07 02:14:32;;;;;;;;;;;3.90;99.90;;;;;;5104672;28;20553;-69
2023/03/07 02:17:00;;;;;;;;;;;3.90;99.90;;;;;;5098319;28;19966;-67
2023/03/07 02:19:33;;;;;;;;;;;3.90;99.90;;;;;;5102342;28;19927;-67
2023/03/07 02:22:04;;;;;;;;;;;3.90;99.90;;;;;;5101901;28;20064;-67
2023/03/07 02:24:33;;;;;;;;;;;3.80;99.90;;;;;;5103990;28;20378;-66
2023/03/07 02:27:01;;;;;;;;;;;3.90;99.90;;;;;;5106261;28;19919;-67
2023/03/07 02:29:28;;;;;;;;;;;3.90;99.90;;;;;;5099832;28;20378;-66
2023/03/07 02:31:54;;;;;;;;;;;3.90;99.90;;;;;;5105073;28;19971;-67
2023/03/07 02:34:22;;;;;;;;;;;3.90;99.90;;;;;;5102379;28;20392;-67
2023/03/07 02:36:49;;;;;;;;;;;3.90;99.90;;;;;;5103078;28;19920;-66
2023/03/07 02:39:16;;;;;;;;;;;3.90;99.90;;;;;;5101043;28;19977;-66
2023/03/07 02:41:42;;;;;;;;;;;3.90;99.90;;;;;;5101683;28;19920;-67
2023/03/07 02:44:11;;;;;;;;;;;3.90;99.90;;;;;;5102965;28;19923;-67
2023/03/07 02:46:37;;;;;;;;;;;3.90;99.90;;;;;;5103936;28;19920;-67
2023/03/07 02:49:04;;;;;;;;;;;3.90;99.90;;;;;;5104156;28;20002;-67
2023/03/07 02:51:31;;;;;;;;;;;3.90;99.90;;;;;;5102355;28;19946;-66
2023/03/07 02:53:57;;;;;;;;;;;3.90;99.90;;;;;;5106953;28;19924;-66
2023/03/07 02:56:24;;;;;;;;;;;3.90;99.90;;;;;;5104164;28;19920;-67
2023/03/07 02:58:50;;;;;;;;;;;3.90;99.90;;;;;;5106414;28;19923;-67
2023/03/07 03:01:18;;;;;;;;;;;3.90;99.90;;;;;;5034425;28;1706900;-68
2023/03/07 03:03:45;;;;;;;;;;;3.90;99.90;;;;;;5105619;28;19924;-66
2023/03/07 03:06:11;;;;;;;;;;;3.90;99.90;;;;;;5104257;28;20275;-67
2023/03/07 03:08:38;;;;;;;;;;;3.90;99.90;;;;;;5102598;28;19924;-66
2023/03/07 03:11:04;;;;;;;;;;;3.90;99.90;;;;;;5104847;28;19924;-66
2023/03/07 03:13:31;;;;;;;;;;;3.90;99.90;;;;;;5104598;28;19969;-67
2023/03/07 03:15:58;;;;;;;;;;;3.90;99.90;;;;;;5101978;28;19931;-66
2023/03/07 03:18:28;;;;;;;;;;;3.90;99.90;;;;;;5101264;28;19941;-66
2023/03/07 03:20:54;;;;;;;;;;;3.90;99.90;;;;;;5105475;28;19970;-67
2023/03/07 03:23:21;;;;;;;;;;;3.80;99.90;;;;;;5104187;28;19927;-66
2023/03/07 03:25:56;;;;;;;;;;;3.80;99.90;;;;;;5104997;28;19924;-67
2023/03/07 03:28:23;;;;;;;;;;;3.80;99.90;;;;;;5098420;28;20431;-67
2023/03/07 03:30:56;;;;;;;;;;;3.70;99.90;;;;;;5104054;28;19927;-67
2023/03/07 03:33:23;;;;;;;;;;;3.80;99.90;;;;;;5104786;28;19977;-65
2023/03/07 03:35:50;;;;;;;;;;;3.70;99.90;;;;;;5104990;28;19924;-67
2023/03/07 03:38:17;;;;;;;;;;;3.70;99.90;;;;;;5100855;28;19932;-66
2023/03/07 03:40:43;;;;;;;;;;;3.70;99.90;;;;;;5104010;28;20382;-67
2023/03/07 03:43:10;;;;;;;;;;;3.70;99.90;;;;;;5103825;28;19961;-66
2023/03/07 03:45:38;;;;;;;;;;;3.80;99.90;;;;;;5102335;28;19925;-66
2023/03/07 03:48:05;;;;;;;;;;;3.80;99.90;;;;;;5102157;28;19947;-66
2023/03/07 03:50:32;;;;;;;;;;;3.80;99.90;;;;;;5103579;28;19988;-67
2023/03/07 03:53:00;;;;;;;;;;;3.80;99.90;;;;;;5104911;28;19977;-67
2023/03/07 03:55:27;;;;;;;;;;;3.70;99.90;;;;;;5100800;28;19923;-67
2023/03/07 03:57:53;;;;;;;;;;;3.70;99.90;;;;;;5100567;28;19936;-67
2023/03/07 04:00:20;;;;;;;;;;;3.80;99.90;;;;;;5104549;28;19928;-66
2023/03/07 04:02:46;;;;;;;;;;;3.80;99.90;;;;;;5103194;28;19977;-66
2023/03/07 04:05:13;;;;;;;;;;;3.80;99.90;;;;;;5103782;28;20354;-67
2023/03/07 04:07:39;;;;;;;;;;;3.80;99.90;;;;;;5101575;28;19928;-67
2023/03/07 04:10:08;;;;;;;;;;;3.80;99.90;;;;;;5102509;28;19969;-67
2023/03/07 04:12:35;;;;;;;;;;;3.80;99.90;;;;;;5104018;28;19931;-67
2023/03/07 04:15:01;;;;;;;;;;;3.80;99.90;;;;;;5104325;28;19924;-66
2023/03/07 04:17:28;;;;;;;;;;;3.90;99.90;;;;;;5104091;28;19969;-67
2023/03/07 04:19:54;;;;;;;;;;;3.80;99.90;;;;;;5098099;28;20379;-66
2023/03/07 04:22:21;;;;;;;;;;;3.80;99.90;;;;;;5107411;28;19945;-66
2023/03/07 04:24:48;;;;;;;;;;;3.90;99.90;;;;;;5103373;28;19924;-67
2023/03/07 04:27:16;;;;;;;;;;;3.80;99.90;;;;;;5103262;28;19973;-66
2023/03/07 04:29:43;;;;;;;;;;;3.80;99.90;;;;;;5100504;28;20022;-67
2023/03/07 04:32:09;;;;;;;;;;;3.90;99.90;;;;;;5105375;28;19944;-67
2023/03/07 04:34:36;;;;;;;;;;;3.90;99.90;;;;;;5108912;28;19924;-67
2023/03/07 04:37:02;;;;;;;;;;;3.80;99.90;;;;;;5100629;28;19928;-66
2023/03/07 04:39:29;;;;;;;;;;;3.80;99.90;;;;;;5101968;28;20345;-67
2023/03/07 04:41:55;;;;;;;;;;;3.80;99.90;;;;;;5100906;28;19930;-66
2023/03/07 04:44:23;;;;;;;;;;;3.90;99.90;;;;;;5096201;28;19928;-67
2023/03/07 04:46:50;;;;;;;;;;;3.90;99.90;;;;;;5102861;28;19928;-67
2023/03/07 04:49:16;;;;;;;;;;;3.90;99.90;;;;;;5104242;28;19973;-67
2023/03/07 04:51:43;;;;;;;;;;;3.80;99.90;;;;;;5104831;28;20423;-67
2023/03/07 04:54:09;;;;;;;;;;;3.90;99.90;;;;;;5101354;28;19928;-66
2023/03/07 04:56:36;;;;;;;;;;;3.80;99.90;;;;;;5093672;28;20290;-66
2023/03/07 04:59:02;;;;;;;;;;;3.80;99.90;;;;;;5105034;28;19977;-66
2023/03/07 05:01:30;;;;;;;;;;;3.80;99.90;;;;;;5103962;28;19976;-66
2023/03/07 05:03:57;;;;;;;;;;;3.80;99.90;;;;;;5102262;28;19931;-66
2023/03/07 05:06:23;;;;;;;;;;;3.90;99.90;;;;;;5100774;28;19924;-67
2023/03/07 05:08:50;;;;;;;;;;;3.80;99.90;;;;;;5103495;28;19923;-67
2023/03/07 05:11:16;;;;;;;;;;;3.80;99.90;;;;;;5102140;28;19928;-67
2023/03/07 05:13:43;;;;;;;;;;;3.70;99.90;;;;;;5102826;28;19927;-67
2023/03/07 05:16:09;;;;;;;;;;;3.70;99.90;;;;;;5102994;28;19969;-67
2023/03/07 05:18:37;;;;;;;;;;;3.80;99.90;;;;;;5106938;28;19969;-67
2023/03/07 05:21:04;;;;;;;;;;;3.80;99.90;;;;;;5099408;28;19924;-66
2023/03/07 05:23:30;;;;;;;;;;;3.80;99.90;;;;;;5102109;28;20359;-67
2023/03/07 05:25:57;;;;;;;;;;;3.90;99.90;;;;;;5104054;28;19924;-67
2023/03/07 05:28:23;;;;;;;;;;;3.80;99.90;;;;;;5101280;28;19993;-66
2023/03/07 05:30:50;;;;;;;;;;;3.80;99.90;;;;;;5101313;28;19931;-67
2023/03/07 05:33:16;;;;;;;;;;;3.80;99.90;;;;;;5103468;28;19932;-66
2023/03/07 05:35:44;;;;;;;;;;;3.60;99.90;;;;;;5103579;28;19973;-67
2023/03/07 05:38:11;;;;;;;;;;;3.60;99.90;;;;;;5103536;28;19972;-67
2023/03/07 05:40:37;;;;;;;;;;;3.70;99.90;;;;;;5099708;28;19928;-67
2023/03/07 05:43:04;;;;;;;;;;;3.80;99.90;;;;;;5102358;28;19985;-66
2023/03/07 05:45:30;;;;;;;;;;;3.80;99.90;;;;;;5099040;28;19974;-66
2023/03/07 05:47:57;;;;;;;;;;;3.80;99.90;;;;;;5096366;28;19931;-66
2023/03/07 05:50:24;;;;;;;;;;;3.70;99.90;;;;;;5099740;28;19985;-65
2023/03/07 05:52:52;;;;;;;;;;;3.70;99.90;;;;;;5100198;28;19928;-65
2023/03/07 05:55:18;;;;;;;;;;;3.70;99.90;;;;;;5101678;28;20348;-66
2023/03/07 05:57:45;;;;;;;;;;;3.70;99.90;;;;;;5105864;28;19977;-66
2023/03/07 06:00:12;;;;;;;;;;;3.70;99.90;;;;;;5104903;28;19977;-66
2023/03/07 06:02:38;;;;;;;;;;;3.60;99.90;;;;;;5103131;28;20441;-66
2023/03/07 06:05:05;;;;;;;;;;;3.70;99.90;;;;;;5104631;28;19924;-66
2023/03/07 06:07:32;;;;;;;;;;;3.70;99.90;;;;;;5107345;28;20137;-66
2023/03/07 06:09:59;;;;;;;;;;;3.70;99.90;;;;;;5103673;28;19970;-65
2023/03/07 06:12:26;;;;;;;;;;;3.70;99.90;;;;;;5103094;28;19928;-66
2023/03/07 06:14:52;;;;;;;;;;;3.70;99.90;;;;;;5099289;28;19931;-66
2023/03/07 06:17:19;;;;;;;;;;;3.70;99.90;;;;;;5105061;28;19932;-66
2023/03/07 06:19:46;;;;;;;;;;;3.70;99.90;;;;;;5107331;28;19977;-66
2023/03/07 06:22:12;;;;;;;;;;;3.60;99.90;;;;;;5103836;28;19931;-66
2023/03/07 06:24:39;;;;;;;;;;;3.70;99.90;;;;;;5103349;28;19924;-66
2023/03/07 06:27:07;;;;;;;;;;;3.60;99.90;;;;;;5107259;28;19992;-66
2023/03/07 06:29:33;;;;;;;;;;;3.70;99.90;;;;;;5100480;28;19978;-64
2023/03/07 06:32:00;;;;;;;;;;;3.70;99.90;;;;;;5104068;28;19924;-63
2023/03/07 06:34:26;;;;;;;;;;;3.60;99.90;;;;;;5105819;28;19949;-63
2023/03/07 06:36:53;;;;;;;;;;;3.60;99.90;;;;;;5112338;28;19924;-63
2023/03/07 06:39:20;;;;;;;;;;;3.70;99.90;;;;;;5106466;28;19923;-63
2023/03/07 06:41:47;;;;;;;;;;;3.70;99.90;;;;;;5097645;28;19979;-64
2023/03/07 06:44:15;;;;;;;;;;;3.80;99.90;;;;;;5093312;28;19931;-63
2023/03/07 06:46:42;;;;;;;;;;;3.80;99.90;;;;;;5096783;28;19977;-63
2023/03/07 06:49:08;;;;;;;;;;;3.80;99.90;;;;;;5099127;28;19977;-65
2023/03/07 06:51:35;;;;;;;;;;;3.80;99.90;;;;;;5109145;28;19968;-64
2023/03/07 06:54:02;;;;;;;;;;;3.80;99.90;;;;;;5103077;28;19981;-65
2023/03/07 06:56:30;;;;;;;;;;;3.70;99.90;;;;;;5102879;28;19924;-64
2023/03/07 06:58:56;;;;;;;;;;;3.60;99.90;;;;;;5104963;28;19924;-64
2023/03/07 07:01:24;;;;;;;;;;;3.70;99.90;;;;;;5102600;28;20383;-64
2023/03/07 07:03:51;;;;;;;;;;;3.70;99.90;;;;;;5102158;28;19924;-65
2023/03/07 07:06:17;;;;;;;;;;;3.80;99.90;;;;;;5101474;28;19931;-63
2023/03/07 07:08:44;;;;;;;;;;;3.70;99.90;;;;;;5102480;28;19924;-64
2023/03/07 07:11:10;;;;;;;;;;;3.80;99.90;;;;;;5101866;28;20379;-64
2023/03/07 07:13:37;;;;;;;;;;;3.70;99.90;;;;;;5105350;28;19977;-62
2023/03/07 07:16:04;;;;;;;;;;;3.70;99.90;;;;;;5101922;28;19923;-64
2023/03/07 07:18:32;;;;;;;;;;;3.80;99.90;;;;;;5103955;28;19924;-64
2023/03/07 07:20:59;;;;;;;;;;;3.70;99.90;;;;;;5104404;28;19924;-62
2023/03/07 07:23:26;;;;;;;;;;;3.70;99.90;;;;;;5103089;28;19924;-64
2023/03/07 07:25:52;;;;;;;;;;;3.70;99.90;;;;;;5102361;28;20434;-65
2023/03/07 07:28:19;;;;;;;;;;;3.80;99.90;;;;;;5101830;28;19928;-65
2023/03/07 07:30:45;;;;;;;;;;;3.90;99.90;;;;;;5096734;28;19978;-64
2023/03/07 07:33:12;;;;;;;;;;;3.80;99.90;;;;;;5097109;28;19931;-63
2023/03/07 07:35:41;;;;;;;;;;;3.80;99.90;;;;;;5105094;28;19923;-64
2023/03/07 07:38:07;;;;;;;;;;;3.90;99.90;;;;;;5107580;28;20451;-64
2023/03/07 07:40:34;;;;;;;;;;;3.70;99.90;;;;;;5111395;28;19924;-63
2023/03/07 07:43:01;;;;;;;;;;;3.90;99.90;;;;;;5110916;28;19985;-64
2023/03/07 07:45:27;;;;;;;;;;;4.40;99.90;;;;;;5099127;28;20248;-64
2023/03/07 07:47:54;;;;;;;;;;;3.90;99.90;;;;;;5099402;28;19923;-62
2023/03/07 07:50:22;;;;;;;;;;;3.90;99.90;;;;;;5102366;28;19952;-63
2023/03/07 07:52:52;;;;;;;;;;;3.90;99.90;;;;;;5101419;28;19924;-59
2023/03/07 07:55:18;;;;;;;;;;;3.80;99.90;;;;;;5102701;28;19968;-64
2023/03/07 07:57:45;;;;;;;;;;;3.90;99.90;;;;;;5103655;28;19931;-65
2023/03/07 08:00:13;;;;;;;;;;;4.00;99.90;;;;;;5099868;28;19924;-63
2023/03/07 08:02:39;;;;;;;;;;;4.00;99.90;;;;;;5100452;28;19949;-65
2023/03/07 08:05:06;;;;;;;;;;;4.10;99.90;;;;;;5101789;28;19933;-61
2023/03/07 08:07:33;;;;;;;;;;;4.10;99.90;;;;;;5102039;28;19924;-65
2023/03/07 08:10:01;;;;;;;;;;;4.10;99.90;;;;;;5103642;28;19924;-64
2023/03/07 08:12:27;;;;;;;;;;;4.10;99.90;;;;;;5100756;28;19931;-64
2023/03/07 08:14:54;;;;;;;;;;;4.10;99.90;;;;;;5102582;28;19928;-64
2023/03/07 08:17:20;;;;;;;;;;;4.00;99.90;;;;;;5097969;28;19932;-64
2023/03/07 08:19:47;;;;;;;;;;;4.10;99.90;;;;;;5102071;28;19924;-64
2023/03/07 08:22:13;;;;;;;;;;;4.10;99.90;;;;;;5100350;28;19924;-64
2023/03/07 08:24:40;;;;;;;;;;;4.10;99.90;;;;;;5099890;28;19977;-65
2023/03/07 08:27:08;;;;;;;;;;;4.20;99.90;;;;;;5104335;28;19931;-65
2023/03/07 08:29:35;;;;;;;;;;;4.20;99.90;;;;;;5116804;28;19924;-65
2023/03/07 08:32:01;;;;;;;;;;;4.20;99.90;;;;;;5107446;28;20394;-65
2023/03/07 08:34:28;;;;;;;;;;;4.20;99.90;;;;;;5110002;28;19916;-65
2023/03/07 08:36:55;;;;;;;;;;;4.10;99.90;;;;;;5112055;28;19924;-65
2023/03/07 08:39:21;;;;;;;;;;;4.20;99.90;;;;;;5110778;28;19924;-64
2023/03/07 08:41:48;;;;;;;;;;;4.10;99.90;;;;;;5103276;28;19924;-61
2023/03/07 08:44:15;;;;;;;;;;;4.10;99.90;;;;;;5101573;28;19969;-64
2023/03/07 08:46:42;;;;;;;;;;;4.20;99.90;;;;;;5102893;28;19927;-64
2023/03/07 08:49:09;;;;;;;;;;;4.20;99.90;;;;;;5101137;28;19924;-64
2023/03/07 08:51:35;;;;;;;;;;;4.10;99.90;;;;;;5100473;28;20387;-65
2023/03/07 08:54:02;;;;;;;;;;;4.20;99.90;;;;;;5102844;28;19932;-64
2023/03/07 08:56:29;;;;;;;;;;;4.10;99.90;;;;;;5098149;28;19924;-64
2023/03/07 08:58:56;;;;;;;;;;;4.20;99.90;;;;;;5083586;28;19924;-65
2023/03/07 09:01:23;;;;;;;;;;;4.10;99.90;;;;;;5099897;28;20477;-65
2023/03/07 09:03:50;;;;;;;;;;;4.10;99.90;;;;;;5100318;28;19931;-64
2023/03/07 09:06:17;;;;;;;;;;;4.10;99.90;;;;;;5102988;28;19923;-65
2023/03/07 09:08:44;;;;;;;;;;;4.10;99.90;;;;;;5101631;28;20042;-66
2023/03/07 09:11:10;;;;;;;;;;;4.10;99.90;;;;;;5100464;28;19928;-65
2023/03/07 09:13:37;;;;;;;;;;;4.20;99.90;;;;;;5102794;28;19974;-65
2023/03/07 09:16:04;;;;;;;;;;;4.20;99.90;;;;;;5100337;28;19935;-65
2023/03/07 09:18:32;;;;;;;;;;;4.20;99.90;;;;;;5100473;28;19924;-65
2023/03/07 09:20:59;;;;;;;;;;;4.10;99.90;;;;;;5101817;28;20386;-65
2023/03/07 09:23:26;;;;;;;;;;;4.10;99.90;;;;;;5104303;28;19931;-65
2023/03/07 09:25:52;;;;;;;;;;;4.10;99.90;;;;;;5103638;28;19924;-66
2023/03/07 09:28:19;;;;;;;;;;;4.10;99.90;;;;;;5102302;28;19932;-66
2023/03/07 09:30:45;;;;;;;;;;;4.00;99.90;;;;;;5100602;28;19924;-64
2023/03/07 09:33:12;;;;;;;;;;;4.20;99.90;;;;;;5098356;28;20903;-66
2023/03/07 09:35:40;;;;;;;;;;;3.40;99.90;;;;;;5106795;28;20288;-67
2023/03/07 09:38:06;;;;;;;;;;;3.30;99.90;;;;;;5105243;28;20341;-67
2023/03/07 09:40:33;;;;;;;;;;;3.00;99.90;;;;;;5104883;28;20401;-65
2023/03/07 09:43:03;;;;;;;;;;;3.00;99.90;;;;;;5103115;28;19972;-64
2023/03/07 09:45:37;;;;;;;;;;;2.90;99.90;;;;;;5104187;28;20343;-67
2023/03/07 09:48:22;;;;;;;;;;;2.70;99.90;;;;;;5101684;28;20019;-66
2023/03/07 09:50:53;;;;;;;;;;;2.80;99.90;;;;;;5073646;28;20375;-64
2023/03/07 09:53:22;;;;;;;;;;;3.00;99.90;;;;;;5103017;28;20200;-65
2023/03/07 09:55:50;;;;;;;;;;;2.90;99.90;;;;;;5105298;28;19924;-65
2023/03/07 09:58:19;;;;;;;;;;;3.00;99.90;;;;;;5106060;28;20042;-66
2023/03/07 10:00:56;;;;;;;;;;;3.00;99.90;;;;;;5103809;28;19969;-64
2023/03/07 10:03:27;;;;;;;;;;;2.90;99.90;;;;;;5103313;28;20379;-64
2023/03/07 10:05:57;;;;;;;;;;;3.00;99.90;;;;;;5103802;28;19985;-64
2023/03/07 10:08:26;;;;;;;;;;;2.90;99.90;;;;;;5100306;28;19932;-64
2023/03/07 10:10:55;;;;;;;;;;;3.00;99.90;;;;;;5104090;28;19924;-65
2023/03/07 10:13:30;;;;;;;;;;;2.90;99.90;;;;;;5098485;28;19924;-64
2023/03/07 10:15:59;;;;;;;;;;;2.90;99.90;;;;;;5103186;28;20348;-64
2023/03/07 10:18:37;;;;;;;;;;;2.80;99.90;;;;;;5103333;28;19977;-64
2023/03/07 10:21:07;;;;;;;;;;;2.60;99.90;;;;;;5106342;28;19928;-64
2023/03/07 10:23:41;;;;;;;;;;;2.70;99.90;;;;;;5104000;28;19927;-63
2023/03/07 10:26:09;;;;;;;;;;;2.70;99.90;;;;;;5100568;28;20378;-64
2023/03/07 10:28:38;;;;;;;;;;;2.80;99.90;;;;;;5102903;28;19924;-63
2023/03/07 10:31:13;;;;;;;;;;;2.90;99.90;;;;;;5098249;28;19971;-61
2023/03/07 10:33:40;;;;;;;;;;;2.80;99.90;;;;;;5105619;28;20362;-63
2023/03/07 10:36:12;;;;;;;;;;;2.70;99.90;;;;;;5104047;28;19977;-64
2023/03/07 10:38:43;;;;;;;;;;;2.80;99.90;;;;;;5104889;28;20376;-64
2023/03/07 10:41:13;;;;;;;;;;;2.80;99.90;;;;;;5105523;28;19928;-65
2023/03/07 10:43:39;;;;;;;;;;;2.80;99.90;;;;;;5097999;28;19969;-63
2023/03/07 10:46:11;;;;;;;;;;;2.70;99.90;;;;;;5105280;28;19928;-63
2023/03/07 10:48:39;;;;;;;;;;;2.60;99.90;;;;;;5105959;28;20374;-63
2023/03/07 10:51:09;;;;;;;;;;;2.80;99.90;;;;;;5104845;28;19924;-65
2023/03/07 10:53:38;;;;;;;;;;;2.60;99.90;;;;;;5102627;28;20290;-65
2023/03/07 10:56:12;;;;;;;;;;;2.70;99.90;;;;;;5105291;28;19932;-64
2023/03/07 10:58:38;;;;;;;;;;;2.90;99.90;;;;;;5115633;28;20000;-65
2023/03/07 11:01:19;;;;;;;;;;;3.00;99.90;;;;;;5124463;28;19973;-64
2023/03/07 11:03:49;;;;;;;;;;;2.70;99.90;;;;;;5109593;28;19924;-67
2023/03/07 11:06:40;;;;;;;;;;;2.80;99.90;;;;;;5102330;28;19924;-66
2023/03/07 11:09:14;;;;;;;;;;;2.90;99.90;;;;;;5086692;28;19924;-64
2023/03/07 11:11:46;;;;;;;;;;;2.80;99.90;;;;;;5102456;28;20333;-65
2023/03/07 11:14:13;;;;;;;;;;;2.90;99.90;;;;;;5104920;28;19924;-64
2023/03/07 11:16:40;;;;;;;;;;;3.00;99.90;;;;;;5100924;28;20362;-65
2023/03/07 11:19:22;;;;;;;;;;;3.00;99.90;;;;;;5103291;28;19928;-64
2023/03/07 11:21:52;;;;;;;;;;;3.00;99.90;;;;;;5093307;28;19924;-64
2023/03/07 11:24:24;;;;;;;;;;;3.10;99.90;;;;;;5097040;28;20401;-64
2023/03/07 11:26:53;;;;;;;;;;;3.10;99.90;;;;;;5099700;28;20243;-66
2023/03/07 11:29:19;;;;;;;;;;;3.10;99.90;;;;;;5101861;28;20401;-65
2023/03/07 11:31:51;;;;;;;;;;;3.10;99.90;;;;;;5100414;28;19928;-65
2023/03/07 11:34:24;;;;;;;;;;;3.10;99.90;;;;;;5101853;28;20248;-65
2023/03/07 11:36:54;;;;;;;;;;;3.20;99.90;;;;;;5098283;28;20305;-64
2023/03/07 11:39:27;;;;;;;;;;;3.10;99.90;;;;;;5102065;28;19924;-65
2023/03/07 11:41:56;;;;;;;;;;;3.10;99.90;;;;;;5105130;28;19973;-65
2023/03/07 11:44:28;;;;;;;;;;;3.10;99.90;;;;;;5095222;28;19924;-65
2023/03/07 11:47:05;;;;;;;;;;;3.00;99.90;;;;;;5101954;28;20383;-65
2023/03/07 11:49:43;;;;;;;;;;;3.10;99.90;;;;;;5102427;28;19927;-65
2023/03/07 11:52:14;;;;;;;;;;;3.20;99.90;;;;;;5097504;28;19924;-65
2023/03/07 11:54:48;;;;;;;;;;;3.20;99.90;;;;;;5101162;28;19924;-63
2023/03/07 11:57:22;;;;;;;;;;;3.30;99.90;;;;;;5097666;28;19996;-64
2023/03/07 11:59:56;;;;;;;;;;;3.30;99.90;;;;;;5104108;28;19924;-64
2023/03/07 12:02:31;;;;;;;;;;;3.20;99.90;;;;;;5099601;28;20049;-63
2023/03/07 12:05:03;;;;;;;;;;;3.20;99.90;;;;;;5099332;28;19950;-62
2023/03/07 12:07:38;;;;;;;;;;;3.10;99.90;;;;;;5101140;28;19970;-63
2023/03/07 12:10:14;;;;;;;;;;;3.20;99.90;;;;;;5101308;28;19953;-65
2023/03/07 12:12:46;;;;;;;;;;;3.10;99.90;;;;;;5099978;28;19959;-65
2023/03/07 12:15:26;;;;;;;;;;;3.20;99.90;;;;;;5100650;28;19924;-63
2023/03/07 12:17:57;;;;;;;;;;;3.30;99.90;;;;;;5097638;28;19928;-65
2023/03/07 12:20:27;;;;;;;;;;;3.30;99.90;;;;;;5103337;28;20311;-65
2023/03/07 12:23:04;;;;;;;;;;;3.30;99.90;;;;;;5103449;28;19923;-65
2023/03/07 12:25:33;;;;;;;;;;;3.30;99.90;;;;;;5103441;28;19924;-65
2023/03/07 12:28:06;;;;;;;;;;;3.30;99.90;;;;;;5098560;28;19931;-65
2023/03/07 12:30:37;;;;;;;;;;;3.30;99.90;;;;;;5101133;28;19969;-63
2023/03/07 12:33:04;;;;;;;;;;;3.40;99.90;;;;;;5100721;28;19924;-63
2023/03/07 12:35:41;;;;;;;;;;;3.40;99.90;;;;;;5101091;28;19924;-63
2023/03/07 12:38:09;;;;;;;;;;;3.40;99.90;;;;;;5100031;28;19977;-65
2023/03/07 12:40:39;;;;;;;;;;;3.50;99.90;;;;;;5099604;28;19928;-64
2023/03/07 12:43:13;;;;;;;;;;;3.50;99.90;;;;;;5101279;28;20412;-64
2023/03/07 12:45:43;;;;;;;;;;;3.50;99.90;;;;;;5098433;28;19977;-63
2023/03/07 12:48:16;;;;;;;;;;;3.50;99.90;;;;;;5101434;28;20301;-63
2023/03/07 12:50:47;;;;;;;;;;;3.60;99.90;;;;;;5101731;28;19969;-66
2023/03/07 12:53:21;;;;;;;;;;;3.60;99.90;;;;;;5099943;28;19924;-63
2023/03/07 12:55:50;;;;;;;;;;;3.40;99.90;;;;;;5090186;28;19927;-64
2023/03/07 12:58:21;;;;;;;;;;;3.40;99.90;;;;;;5099407;28;19928;-64
2023/03/07 13:00:49;;;;;;;;;;;3.40;99.90;;;;;;5100659;28;19985;-65
2023/03/07 13:03:20;;;;;;;;;;;3.50;99.90;;;;;;5105493;28;19973;-63
2023/03/07 13:05:47;;;;;;;;;;;3.60;99.90;;;;;;5109273;28;19924;-62
2023/03/07 13:08:17;;;;;;;;;;;3.60;99.90;;;;;;5106359;28;20398;-61
2023/03/07 13:10:45;;;;;;;;;;;3.10;99.90;;;;;;5101100;28;19924;-64
2023/03/07 13:13:26;;;;;;;;;;;3.20;99.90;;;;;;5104829;28;19985;-64
2023/03/07 13:16:04;;;;;;;;;;;3.30;99.90;;;;;;5104078;28;19924;-63
2023/03/07 13:18:31;;;;;;;;;;;3.40;99.90;;;;;;5108906;28;19935;-63
2023/03/07 13:21:29;;;;;;;;;;;3.20;99.90;;;;;;5104809;28;19924;-63
2023/03/07 13:24:11;;;;;;;;;;;3.00;99.90;;;;;;5111652;28;20382;-65
2023/03/07 13:26:37;;;;;;;;;;;3.10;99.90;;;;;;5100942;28;19986;-64
2023/03/07 13:29:04;;;;;;;;;;;3.40;99.90;;;;;;5107004;28;19931;-62
2023/03/07 13:31:44;;;;;;;;;;;3.30;99.90;;;;;;5105881;28;20345;-64
2023/03/07 13:34:32;;;;;;;;;;;3.20;99.90;;;;;;5105588;28;20418;-65
2023/03/07 13:37:00;;;;;;;;;;;3.30;99.90;;;;;;5091323;28;19924;-66
2023/03/07 13:39:36;;;;;;;;;;;3.30;99.90;;;;;;5102838;28;19951;-63
2023/03/07 13:42:03;;;;;;;;;;;3.40;99.90;;;;;;5104286;28;19932;-65
2023/03/07 13:44:36;;;;;;;;;;;2.90;99.90;;;;;;5105845;28;19970;-64
2023/03/07 13:47:05;;;;;;;;;;;2.90;99.90;;;;;;5101204;28;19924;-65
2023/03/07 13:49:38;;;;;;;;;;;3.10;99.90;;;;;;5099994;28;19924;-65
2023/03/07 13:52:25;;;;;;;;;;;3.10;99.90;;;;;;5103778;28;19985;-65
2023/03/07 13:54:52;;;;;;;;;;;3.20;99.90;;;;;;5102098;28;20026;-65
2023/03/07 13:57:20;;;;;;;;;;;3.30;99.90;;;;;;5104673;28;19927;-65
2023/03/07 13:59:48;;;;;;;;;;;3.40;99.90;;;;;;5103193;28;19928;-64
2023/03/07 14:02:17;;;;;;;;;;;3.50;99.90;;;;;;5105929;27;20022;-65
2023/03/07 14:04:45;;;;;;;;;;;3.60;99.90;;;;;;5105227;28;19973;-65
2023/03/07 14:07:15;;;;;;;;;;;3.70;99.90;;;;;;5103094;28;19977;-64
2023/03/07 14:09:43;;;;;;;;;;;3.50;99.90;;;;;;5102014;28;19934;-65
2023/03/07 14:12:15;;;;;;;;;;;3.60;99.90;;;;;;5099158;28;19953;-66
2023/03/07 14:14:51;;;;;;;;;;;3.60;99.90;;;;;;5105564;28;20623;-64
2023/03/07 14:17:26;;;;;;;;;;;3.60;99.90;;;;;;5099358;28;19928;-64
2023/03/07 14:19:56;;;;;;;;;;;3.50;99.90;;;;;;5106631;28;19923;-66
2023/03/07 14:22:30;;;;;;;;;;;3.60;99.90;;;;;;5115955;28;19981;-66
2023/03/07 14:25:17;;;;;;;;;;;3.50;99.90;;;;;;5104186;28;19928;-64